createdAt,value
2022-10-25T00:05:25.212Z,97705.81
2022-10-25T00:15:28.101Z,97710.88
2022-10-25T00:25:29.710Z,97712.22
2022-10-25T00:35:31.158Z,97713.03
2022-10-25T00:45:32.646Z,97714.59
2022-10-25T00:55:35.500Z,97733.13
2022-10-25T01:05:38.037Z,97718.53
2022-10-25T01:16:09.001Z,97720.13
2022-10-25T01:26:19.336Z,97733.38
2022-10-25T01:37:01.850Z,97726.47
2022-10-25T01:47:17.389Z,97721.44
2022-10-25T01:57:21.950Z,97715.34
2022-10-25T02:07:38.308Z,97719.28
2022-10-25T02:17:48.644Z,97709.50
2022-10-25T02:27:53.997Z,97711.81
2022-10-25T02:37:55.543Z,97720.47
2022-10-25T02:47:56.999Z,97731.31
2022-10-25T02:57:58.695Z,97731.84
2022-10-25T03:08:00.196Z,97743.97
2022-10-25T03:18:01.636Z,97742.34
2022-10-25T03:28:04.274Z,97742.06
2022-10-25T03:38:05.752Z,97760.13
2022-10-25T03:48:07.618Z,97769.63
2022-10-25T03:58:09.081Z,97776.81
2022-10-25T04:08:10.546Z,97773.75
2022-10-25T04:18:12.017Z,97769.38
2022-10-25T04:28:13.446Z,97769.63
2022-10-25T04:38:14.923Z,97767.19
2022-10-25T04:48:18.677Z,97777.69
2022-10-25T04:58:21.144Z,97780.72
2022-10-25T05:08:22.569Z,97777.41
2022-10-25T05:18:24.313Z,97794.50
2022-10-25T05:28:25.810Z,97809.97
2022-10-25T05:38:33.006Z,97814.19
2022-10-25T05:48:39.159Z,97824.28
2022-10-25T05:58:41.667Z,97841.16
2022-10-25T06:08:43.113Z,97845.19
2022-10-25T06:18:45.309Z,97858.72
2022-10-25T06:28:47.369Z,97868.06
2022-10-25T06:38:49.534Z,97882.25
2022-10-25T06:48:52.863Z,97877.13
2022-10-25T06:58:55.297Z,97880.31
2022-10-25T07:08:59.115Z,97888.41
2022-10-25T07:19:02.647Z,97895.16
2022-10-25T07:29:04.897Z,97901.34
2022-10-25T07:39:06.553Z,97890.03
2022-10-25T07:49:08.066Z,97899.91
2022-10-25T07:59:09.546Z,97910.00
2022-10-25T08:09:14.533Z,97891.75
2022-10-25T08:19:16.615Z,97888.50
2022-10-25T08:29:18.067Z,97876.97
2022-10-25T08:39:19.537Z,97881.75
2022-10-25T08:49:39.344Z,97873.03
2022-10-25T08:59:44.479Z,97860.06
2022-10-25T09:10:00.616Z,97858.88
2022-10-25T09:20:27.548Z,97850.78
2022-10-25T09:30:35.444Z,97844.66
2022-10-25T09:40:53.935Z,97843.34
2022-10-25T09:51:13.144Z,97850.53
2022-10-25T10:01:21.424Z,97841.00
2022-10-25T10:11:23.214Z,97860.16
2022-10-25T10:21:25.935Z,97861.69
2022-10-25T10:31:46.215Z,97857.81
2022-10-25T10:42:19.264Z,97846.84
2022-10-25T10:52:36.355Z,97828.78
2022-10-25T11:02:41.114Z,97819.16
2022-10-25T11:12:44.172Z,97819.91
2022-10-25T11:23:10.644Z,97833.84
2022-10-25T11:33:36.139Z,97814.31
2022-10-25T11:43:58.953Z,97810.63
2022-10-25T11:54:18.742Z,97815.38
2022-10-25T12:04:39.515Z,97802.16
2022-10-25T12:14:45.539Z,97811.22
2022-10-25T12:24:52.812Z,97798.38
2022-10-25T12:34:55.447Z,97802.81
2022-10-25T12:45:24.167Z,97787.44
2022-10-25T12:55:54.096Z,97782.72
2022-10-25T13:06:23.907Z,97782.25
2022-10-25T13:16:33.730Z,97783.91
2022-10-25T13:27:13.688Z,97776.06
2022-10-25T13:37:33.470Z,97785.06
2022-10-25T13:47:48.561Z,97780.34
2022-10-25T13:57:50.011Z,97780.03
2022-10-25T14:07:51.628Z,97772.66
2022-10-25T14:17:55.806Z,97768.81
2022-10-25T14:28:09.763Z,97756.34
2022-10-25T14:38:22.678Z,97755.25
2022-10-25T14:48:24.264Z,97759.97
2022-10-25T14:58:27.606Z,97749.34
2022-10-25T15:08:30.427Z,97753.41
2022-10-25T15:18:37.440Z,97749.56
2022-10-25T15:28:50.341Z,97755.91
2022-10-25T15:39:16.803Z,97754.28
2022-10-25T15:49:19.008Z,97748.06
2022-10-25T15:59:20.599Z,97751.16
2022-10-25T16:09:22.114Z,97750.88
2022-10-25T16:19:24.697Z,97757.63
2022-10-25T16:29:26.221Z,97753.81
2022-10-25T16:39:27.799Z,97760.34
2022-10-25T16:49:29.351Z,97770.75
2022-10-25T16:59:30.774Z,97771.16
2022-10-25T17:09:32.254Z,97762.78
2022-10-25T17:19:34.011Z,97776.50
2022-10-25T17:29:35.504Z,97775.75
2022-10-25T17:39:36.975Z,97778.47
2022-10-25T17:49:39.363Z,97782.81
2022-10-25T17:59:40.928Z,97781.56
2022-10-25T18:09:42.351Z,97777.19
2022-10-25T18:19:43.829Z,97781.44
2022-10-25T18:29:45.330Z,97771.94
2022-10-25T18:39:47.021Z,97774.38
2022-10-25T18:49:48.805Z,97773.13
2022-10-25T18:59:50.282Z,97762.28
2022-10-25T19:09:51.792Z,97761.25
2022-10-25T19:19:53.214Z,97757.03
2022-10-25T19:29:54.720Z,97756.75
2022-10-25T19:39:58.901Z,97740.84
2022-10-25T19:50:01.359Z,97744.56
2022-10-25T20:00:03.991Z,97734.75
2022-10-25T20:10:08.183Z,97739.47
2022-10-25T20:20:10.483Z,97736.81
2022-10-25T20:30:12.011Z,97745.81
2022-10-25T20:40:15.548Z,97756.38
2022-10-25T20:50:17.440Z,97752.94
2022-10-25T21:00:20.547Z,97745.25
2022-10-25T21:10:22.225Z,97747.34
2022-10-25T21:20:23.737Z,97745.25
2022-10-25T21:30:25.356Z,97726.47
2022-10-25T21:40:26.817Z,97723.84
2022-10-25T21:50:28.248Z,97714.84
2022-10-25T22:00:29.678Z,97716.97
2022-10-25T22:10:31.458Z,97701.09
2022-10-25T22:20:32.910Z,97705.84
2022-10-25T22:30:34.374Z,97698.69
2022-10-25T22:40:35.861Z,97691.81
2022-10-25T22:50:37.306Z,97693.91
2022-10-25T23:00:38.766Z,97698.66
2022-10-25T23:10:40.305Z,97715.84
2022-10-25T23:20:52.841Z,97707.16
2022-10-25T23:30:54.352Z,97697.09
2022-10-25T23:40:55.914Z,97709.84
2022-10-25T23:51:07.263Z,97722.28
